createdAt,value
2023-04-02T00:02:21.961Z,96323.90
2023-04-02T00:05:19.620Z,96322.77
2023-04-02T00:07:50.425Z,96320.23
2023-04-02T00:10:37.960Z,96320.64
2023-04-02T00:13:34.271Z,96318.73
2023-04-02T00:16:06.818Z,96316.94
2023-04-02T00:18:40.378Z,96316.66
2023-04-02T00:21:20.707Z,96320.17
2023-04-02T00:23:48.930Z,96321.46
2023-04-02T00:26:28.985Z,96324.10
2023-04-02T00:28:58.893Z,96322.98
2023-04-02T00:31:27.621Z,96322.02
2023-04-02T00:33:56.382Z,96320.27
2023-04-02T00:36:26.783Z,96319.73
2023-04-02T00:38:58.027Z,96321.23
2023-04-02T00:41:30.891Z,96324.41
2023-04-02T00:44:01.051Z,96324.69
2023-04-02T00:46:47.472Z,96322.38
2023-04-02T00:49:32.733Z,96323.63
2023-04-02T00:52:04.859Z,96321.49
2023-04-02T00:54:41.212Z,96325.60
2023-04-02T00:57:18.095Z,96329.98
2023-04-02T01:00:08.677Z,96332.29
2023-04-02T01:02:38.587Z,96333.42
2023-04-02T01:05:16.807Z,96333.11
2023-04-02T01:08:18.804Z,96331.67
2023-04-02T01:11:01.761Z,96330.50
2023-04-02T01:13:53.454Z,96330.80
2023-04-02T01:16:30.925Z,96329.74
2023-04-02T01:19:21.115Z,96332.56
2023-04-02T01:22:20.658Z,96337.16
2023-04-02T01:24:49.533Z,96338.70
2023-04-02T01:27:24.933Z,96337.63
2023-04-02T01:29:56.839Z,96342.34
2023-04-02T01:32:28.279Z,96343.45
2023-04-02T01:34:58.380Z,96346.33
2023-04-02T01:37:32.507Z,96352.88
2023-04-02T01:40:10.012Z,96352.13
2023-04-02T01:42:42.547Z,96354.81
2023-04-02T01:45:17.272Z,96355.05
2023-04-02T01:47:46.541Z,96355.48
2023-04-02T01:50:31.704Z,96357.71
2023-04-02T01:53:04.059Z,96356.81
2023-04-02T01:55:55.001Z,96356.21
2023-04-02T01:58:26.508Z,96355.79
2023-04-02T02:01:08.497Z,96355.07
2023-04-02T02:03:39.001Z,96359.30
2023-04-02T02:06:07.241Z,96360.79
2023-04-02T02:08:52.552Z,96360.45
2023-04-02T02:11:22.501Z,96363.19
2023-04-02T02:13:57.500Z,96360.34
2023-04-02T02:16:27.600Z,96362.14
2023-04-02T02:19:02.623Z,96363.61
2023-04-02T02:21:43.914Z,96362.80
2023-04-02T02:24:22.855Z,96364.82
2023-04-02T02:27:23.036Z,96367.98
2023-04-02T02:29:58.548Z,96373.19
2023-04-02T02:32:32.846Z,96370.13
2023-04-02T02:35:00.834Z,96368.53
2023-04-02T02:37:35.898Z,96368.87
2023-04-02T02:40:08.517Z,96371.80
2023-04-02T02:42:44.431Z,96371.19
2023-04-02T02:45:21.898Z,96371.80
2023-04-02T02:47:52.197Z,96373.45
2023-04-02T02:50:26.477Z,96375.12
2023-04-02T02:52:58.619Z,96373.38
2023-04-02T02:55:35.061Z,96374.09
2023-04-02T02:58:19.578Z,96378.20
2023-04-02T03:01:10.808Z,96378.49
2023-04-02T03:03:40.768Z,96378.08
2023-04-02T03:06:16.865Z,96380.61
2023-04-02T03:09:31.562Z,96385.89
2023-04-02T03:12:29.860Z,96389.39
2023-04-02T03:15:06.361Z,96390.73
2023-04-02T03:17:46.122Z,96391.71
2023-04-02T03:20:46.913Z,96396.11
2023-04-02T03:23:22.255Z,96395.14
2023-04-02T03:25:53.193Z,96393.48
2023-04-02T03:28:26.268Z,96396.67
2023-04-02T03:31:26.621Z,96399.38
2023-04-02T03:34:04.543Z,96402.95
2023-04-02T03:36:49.124Z,96406.92
2023-04-02T03:39:39.127Z,96410.77
2023-04-02T03:42:16.265Z,96413.66
2023-04-02T03:45:21.448Z,96416.36
2023-04-02T03:47:56.015Z,96421.14
2023-04-02T03:50:37.928Z,96422.54
2023-04-02T03:53:06.460Z,96424.25
2023-04-02T03:55:38.090Z,96422.79
2023-04-02T03:58:10.066Z,96423.73
2023-04-02T04:00:44.446Z,96425.36
2023-04-02T04:03:20.162Z,96429.21
2023-04-02T04:05:57.483Z,96434.45
2023-04-02T04:08:33.257Z,96437.05
2023-04-02T04:11:07.348Z,96434.60
2023-04-02T04:13:57.637Z,96435.10
2023-04-02T04:16:36.107Z,96438.52
2023-04-02T04:19:24.299Z,96442.42
2023-04-02T04:21:57.315Z,96446.38
2023-04-02T04:24:27.950Z,96448.80
2023-04-02T04:27:09.724Z,96452.27
2023-04-02T04:30:06.335Z,96453.45
2023-04-02T04:32:39.312Z,96452.60
2023-04-02T04:35:45.693Z,96456.71
2023-04-02T04:38:21.792Z,96453.82
2023-04-02T04:40:55.761Z,96455.94
2023-04-02T04:43:50.719Z,96456.42
2023-04-02T04:46:26.240Z,96456.55
2023-04-02T04:49:14.325Z,96456.88
2023-04-02T04:51:52.236Z,96462.16
2023-04-02T04:54:20.935Z,96466.56
2023-04-02T04:56:55.886Z,96470.89
2023-04-02T04:59:30.932Z,96474.88
2023-04-02T05:02:15.186Z,96475.50
2023-04-02T05:04:49.710Z,96479.83
2023-04-02T05:07:27.893Z,96481.88
2023-04-02T05:10:09.421Z,96485.38
2023-04-02T05:12:54.963Z,96485.92
2023-04-02T05:15:39.293Z,96486.38
2023-04-02T05:18:17.772Z,96485.15
2023-04-02T05:20:52.148Z,96485.83
2023-04-02T05:23:28.493Z,96486.50
2023-04-02T05:26:15.356Z,96489.79
2023-04-02T05:28:51.227Z,96492.02
2023-04-02T05:31:26.269Z,96492.81
2023-04-02T05:33:55.732Z,96498.35
2023-04-02T05:36:28.094Z,96503.83
2023-04-02T05:38:59.899Z,96502.79
2023-04-02T05:41:47.749Z,96502.90
2023-04-02T05:44:33.606Z,96502.13
2023-04-02T05:47:14.335Z,96504.80
2023-04-02T05:49:49.197Z,96504.80
2023-04-02T05:52:25.796Z,96505.64
2023-04-02T05:54:56.836Z,96509.80
2023-04-02T05:57:46.837Z,96510.05
2023-04-02T06:00:39.597Z,96510.29
2023-04-02T06:03:24.643Z,96512.14
2023-04-02T06:05:59.621Z,96510.05
2023-04-02T06:08:36.654Z,96513.90
2023-04-02T06:11:11.573Z,96513.46
2023-04-02T06:13:41.655Z,96515.09
2023-04-02T06:16:14.788Z,96515.42
2023-04-02T06:18:43.856Z,96515.95
2023-04-02T06:21:16.883Z,96518.31
2023-04-02T06:23:57.110Z,96518.08
2023-04-02T06:26:45.058Z,96518.67
2023-04-02T06:29:22.819Z,96520.42
2023-04-02T06:31:54.492Z,96525.23
2023-04-02T06:34:27.904Z,96529.89
2023-04-02T06:37:21.326Z,96530.54
2023-04-02T06:39:50.553Z,96528.63
2023-04-02T06:42:24.743Z,96526.76
2023-04-02T06:45:02.982Z,96523.63
2023-04-02T06:47:51.597Z,96522.24
2023-04-02T06:50:46.346Z,96525.73
2023-04-02T06:53:24.180Z,96523.96
2023-04-02T06:56:18.820Z,96527.48
2023-04-02T06:58:47.351Z,96528.91
2023-04-02T07:01:22.412Z,96529.19
2023-04-02T07:03:51.281Z,96533.88
2023-04-02T07:06:24.993Z,96533.35
2023-04-02T07:08:54.844Z,96532.92
2023-04-02T07:11:24.359Z,96531.34
2023-04-02T07:13:54.984Z,96533.84
2023-04-02T07:16:26.565Z,96539.66
2023-04-02T07:18:56.304Z,96540.79
2023-04-02T07:21:26.824Z,96543.20
2023-04-02T07:23:55.616Z,96545.73
2023-04-02T07:26:27.455Z,96547.81
2023-04-02T07:28:56.388Z,96553.54
2023-04-02T07:31:27.228Z,96557.59
2023-04-02T07:33:59.932Z,96556.87
2023-04-02T07:36:29.643Z,96557.73
2023-04-02T07:38:58.258Z,96559.77
2023-04-02T07:41:26.631Z,96560.42
2023-04-02T07:43:54.898Z,96564.81
2023-04-02T07:46:23.474Z,96567.73
2023-04-02T07:48:51.486Z,96562.09
2023-04-02T07:51:22.756Z,96564.90
2023-04-02T07:53:55.122Z,96564.16
2023-04-02T07:56:24.949Z,96568.13
2023-04-02T07:58:52.976Z,96569.55
2023-04-02T08:01:24.504Z,96570.02
2023-04-02T08:03:56.813Z,96574.03
2023-04-02T08:06:26.093Z,96574.13
2023-04-02T08:08:54.558Z,96574.98
2023-04-02T08:11:22.931Z,96575.04
2023-04-02T08:13:52.235Z,96575.36
2023-04-02T08:16:20.187Z,96577.05
2023-04-02T08:18:48.164Z,96572.32
2023-04-02T08:21:16.837Z,96575.35
2023-04-02T08:23:45.380Z,96579.35
2023-04-02T08:26:18.940Z,96580.94
2023-04-02T08:28:47.058Z,96582.98
2023-04-02T08:31:15.185Z,96577.86
2023-04-02T08:33:43.225Z,96582.11
2023-04-02T08:36:19.240Z,96586.40
2023-04-02T08:38:47.313Z,96585.33
2023-04-02T08:41:44.436Z,96584.66
2023-04-02T08:44:22.594Z,96586.55
2023-04-02T08:47:09.925Z,96590.84
2023-04-02T08:49:44.935Z,96595.58
2023-04-02T08:52:28.892Z,96597.95
2023-04-02T08:55:02.875Z,96595.42
2023-04-02T08:58:20.617Z,96596.75
2023-04-02T09:00:53.700Z,96598.26
2023-04-02T09:03:30.088Z,96597.77
2023-04-02T09:05:59.992Z,96600.48
2023-04-02T09:08:32.021Z,96589.53
2023-04-02T09:11:07.323Z,96607.08
2023-04-02T09:13:41.135Z,96604.77
2023-04-02T09:16:13.451Z,96609.52
2023-04-02T09:18:43.534Z,96602.70
2023-04-02T09:21:20.948Z,96607.16
2023-04-02T09:23:50.250Z,96605.07
2023-04-02T09:26:29.249Z,96598.36
2023-04-02T09:29:12.535Z,96604.73
2023-04-02T09:31:45.160Z,96606.30
2023-04-02T09:34:34.446Z,96609.12
2023-04-02T09:37:18.712Z,96610.50
2023-04-02T09:39:47.015Z,96608.27
2023-04-02T09:42:38.277Z,96612.48
2023-04-02T09:45:23.816Z,96618.94
2023-04-02T09:47:54.263Z,96613.73
2023-04-02T09:50:22.135Z,96615.79
2023-04-02T09:52:50.637Z,96612.82
2023-04-02T09:55:18.919Z,96610.48
2023-04-02T09:57:49.027Z,96612.19
2023-04-02T10:03:21.610Z,96618.14
2023-04-02T10:06:03.680Z,96620.70
2023-04-02T10:08:32.799Z,96620.38
2023-04-02T10:11:04.134Z,96614.63
2023-04-02T10:13:54.769Z,96613.61
2023-04-02T10:16:33.291Z,96619.95
2023-04-02T10:19:30.866Z,96619.23
2023-04-02T10:22:03.335Z,96621.20
2023-04-02T10:24:31.658Z,96618.17
2023-04-02T10:26:59.710Z,96620.24
2023-04-02T10:29:49.362Z,96616.67
2023-04-02T10:32:32.436Z,96620.39
2023-04-02T10:35:28.528Z,96618.80
2023-04-02T10:38:11.215Z,96617.31
2023-04-02T10:40:46.001Z,96619.30
2023-04-02T10:43:26.253Z,96619.98
2023-04-02T10:46:03.696Z,96627.44
2023-04-02T10:49:00.107Z,96627.21
2023-04-02T10:51:43.380Z,96626.36
2023-04-02T10:54:19.593Z,96622.44
2023-04-02T10:56:51.323Z,96621.39
2023-04-02T10:59:29.811Z,96622.21
2023-04-02T11:02:02.133Z,96622.35
2023-04-02T11:04:41.727Z,96625.61
2023-04-02T11:07:23.885Z,96625.80
2023-04-02T11:09:56.537Z,96624.65
2023-04-02T11:12:56.880Z,96625.52
2023-04-02T11:15:26.103Z,96628.70
2023-04-02T11:17:54.917Z,96624.05
2023-04-02T11:20:48.534Z,96627.80
2023-04-02T11:23:21.122Z,96627.66
2023-04-02T11:25:49.374Z,96624.41
2023-04-02T11:28:28.314Z,96626.45
2023-04-02T11:30:57.400Z,96624.11
2023-04-02T11:33:38.161Z,96630.07
2023-04-02T11:36:45.287Z,96633.67
2023-04-02T11:39:17.456Z,96631.17
2023-04-02T11:42:22.326Z,96632.64
2023-04-02T11:44:50.705Z,96637.30
2023-04-02T11:47:27.101Z,96635.58
2023-04-02T11:49:55.473Z,96636.46
2023-04-02T11:52:29.561Z,96639.35
2023-04-02T11:55:01.833Z,96643.86
2023-04-02T11:57:50.967Z,96643.92
2023-04-02T12:01:15.039Z,96648.63
2023-04-02T12:04:11.144Z,96649.19
2023-04-02T12:07:04.121Z,96646.95
2023-04-02T12:09:49.958Z,96644.30
2023-04-02T12:12:24.637Z,96645.81
2023-04-02T12:14:56.037Z,96643.67
2023-04-02T12:17:37.376Z,96648.33
2023-04-02T12:20:09.294Z,96643.52
2023-04-02T12:22:47.781Z,96647.20
2023-04-02T12:25:18.635Z,96647.89
2023-04-02T12:27:48.014Z,96649.39
2023-04-02T12:30:21.557Z,96646.33
2023-04-02T12:32:50.493Z,96647.91
2023-04-02T12:35:32.514Z,96644.64
2023-04-02T12:38:01.291Z,96645.25
2023-04-02T12:40:29.412Z,96644.09
2023-04-02T12:42:57.571Z,96645.99
2023-04-02T12:45:29.839Z,96649.70
2023-04-02T12:48:02.950Z,96647.20
2023-04-02T12:50:32.658Z,96643.54
2023-04-02T12:53:01.532Z,96637.73
2023-04-02T12:55:30.713Z,96636.92
2023-04-02T12:58:00.052Z,96638.95
2023-04-02T13:00:33.199Z,96638.90
2023-04-02T13:03:20.436Z,96638.52
2023-04-02T13:05:50.946Z,96637.33
2023-04-02T13:08:41.718Z,96643.02
2023-04-02T13:11:10.113Z,96640.02
2023-04-02T13:13:40.809Z,96642.45
2023-04-02T13:16:15.082Z,96643.05
2023-04-02T13:18:45.812Z,96642.27
2023-04-02T13:21:16.727Z,96645.72
2023-04-02T13:23:46.197Z,96647.30
2023-04-02T13:26:27.718Z,96649.16
2023-04-02T13:28:59.668Z,96649.95
2023-04-02T13:31:29.851Z,96652.45
2023-04-02T13:33:58.970Z,96649.32
2023-04-02T13:36:29.609Z,96649.62
2023-04-02T13:38:57.718Z,96649.98
2023-04-02T13:41:28.922Z,96649.76
2023-04-02T13:44:02.365Z,96646.77
2023-04-02T13:46:33.927Z,96647.73
2023-04-02T13:49:02.169Z,96650.61
2023-04-02T13:51:40.092Z,96648.98
2023-04-02T13:54:18.491Z,96654.27
2023-04-02T13:56:46.890Z,96651.20
2023-04-02T13:59:15.323Z,96648.72
2023-04-02T14:01:46.471Z,96647.54
2023-04-02T14:04:23.394Z,96649.27
2023-04-02T14:07:26.222Z,96651.44
2023-04-02T14:10:20.680Z,96652.54
2023-04-02T14:13:01.972Z,96650.34
2023-04-02T14:16:02.282Z,96651.20
2023-04-02T14:19:10.239Z,96650.58
2023-04-02T14:22:03.043Z,96651.55
2023-04-02T14:24:49.683Z,96661.79
2023-04-02T14:27:36.974Z,96655.02
2023-04-02T14:30:12.099Z,96658.60
2023-04-02T14:33:07.089Z,96655.95
2023-04-02T14:35:44.322Z,96656.99
2023-04-02T14:38:31.532Z,96657.61
2023-04-02T14:41:10.859Z,96655.40
2023-04-02T14:43:50.593Z,96655.52
2023-04-02T14:46:18.502Z,96655.06
2023-04-02T14:49:00.545Z,96652.66
2023-04-02T14:51:43.894Z,96651.96
2023-04-02T14:54:23.972Z,96657.02
2023-04-02T14:57:18.970Z,96654.54
2023-04-02T15:00:08.476Z,96656.44
2023-04-02T15:02:40.501Z,96656.16
2023-04-02T15:05:18.615Z,96656.42
2023-04-02T15:07:55.332Z,96657.92
2023-04-02T15:10:39.876Z,96658.42
2023-04-02T15:13:21.804Z,96657.23
2023-04-02T15:15:56.994Z,96657.77
2023-04-02T15:18:25.698Z,96661.91
2023-04-02T15:21:14.654Z,96661.91
2023-04-02T15:23:52.730Z,96661.77
2023-04-02T15:26:26.592Z,96663.70
2023-04-02T15:29:13.245Z,96662.99
2023-04-02T15:31:47.588Z,96664.16
2023-04-02T15:34:21.753Z,96663.61
2023-04-02T15:37:19.876Z,96664.34
2023-04-02T15:40:03.631Z,96668.50
2023-04-02T15:42:39.081Z,96674.67
2023-04-02T15:45:18.012Z,96675.67
2023-04-02T15:48:08.933Z,96679.23
2023-04-02T15:50:52.615Z,96684.52
2023-04-02T15:53:54.902Z,96686.98
2023-04-02T15:56:43.735Z,96692.70
2023-04-02T15:59:43.269Z,96699.48
2023-04-02T16:02:23.215Z,96701.61
2023-04-02T16:05:06.547Z,96707.23
2023-04-02T16:07:48.054Z,96711.69
2023-04-02T16:10:37.890Z,96715.63
2023-04-02T16:13:19.938Z,96717.38
2023-04-02T16:16:23.083Z,96718.34
2023-04-02T16:19:25.458Z,96719.08
2023-04-02T16:22:11.892Z,96721.41
2023-04-02T16:24:39.741Z,96727.19
2023-04-02T16:27:35.909Z,96728.25
2023-04-02T16:30:12.899Z,96729.75
2023-04-02T16:33:22.573Z,96731.19
2023-04-02T16:36:12.055Z,96734.52
2023-04-02T16:38:50.599Z,96738.78
2023-04-02T16:41:27.562Z,96743.93
2023-04-02T16:43:59.432Z,96747.64
2023-04-02T16:46:40.300Z,96748.54
2023-04-02T16:49:21.067Z,96750.39
2023-04-02T16:52:09.147Z,96751.58
2023-04-02T16:54:47.673Z,96753.91
2023-04-02T16:57:19.074Z,96760.82
2023-04-02T16:59:56.316Z,96768.17
2023-04-02T17:02:54.753Z,96773.27
2023-04-02T17:05:31.873Z,96780.13
2023-04-02T17:08:41.406Z,96788.14
2023-04-02T17:11:24.067Z,96786.49
2023-04-02T17:14:07.604Z,96786.70
2023-04-02T17:16:42.371Z,96787.73
2023-04-02T17:19:12.938Z,96784.18
2023-04-02T17:21:45.548Z,96789.60
2023-04-02T17:24:14.552Z,96792.16
2023-04-02T17:26:47.844Z,96787.17
2023-04-02T17:29:25.975Z,96786.98
2023-04-02T17:32:01.420Z,96791.36
2023-04-02T17:34:30.846Z,96795.45
2023-04-02T17:37:07.472Z,96798.98
2023-04-02T17:39:47.340Z,96810.11
2023-04-02T17:42:28.472Z,96810.51
2023-04-02T17:45:02.479Z,96814.17
2023-04-02T17:47:43.357Z,96812.08
2023-04-02T17:50:17.433Z,96817.30
2023-04-02T17:53:05.710Z,96813.61
2023-04-02T17:55:52.495Z,96819.27
2023-04-02T17:58:39.519Z,96818.55
2023-04-02T18:01:30.932Z,96823.98
2023-04-02T18:04:08.253Z,96823.09
2023-04-02T18:06:38.112Z,96828.22
2023-04-02T18:09:31.349Z,96830.61
2023-04-02T18:12:13.396Z,96831.31
2023-04-02T18:15:03.135Z,96832.94
2023-04-02T18:17:47.599Z,96834.02
2023-04-02T18:20:39.630Z,96838.67
2023-04-02T18:23:29.044Z,96839.98
2023-04-02T18:26:14.413Z,96838.68
2023-04-02T18:29:03.063Z,96842.59
2023-04-02T18:31:59.499Z,96851.63
2023-04-02T18:34:30.553Z,96856.08
2023-04-02T18:37:17.197Z,96852.38
2023-04-02T18:40:22.167Z,96855.36
2023-04-02T18:43:23.157Z,96864.45
2023-04-02T18:46:05.767Z,96869.29
2023-04-02T18:48:34.049Z,96871.80
2023-04-02T18:51:02.399Z,96871.36
2023-04-02T18:53:32.794Z,96874.46
2023-04-02T18:56:08.199Z,96875.08
2023-04-02T18:58:47.114Z,96879.52
2023-04-02T19:01:30.880Z,96882.23
2023-04-02T19:04:22.636Z,96882.14
2023-04-02T19:07:02.946Z,96880.54
2023-04-02T19:09:35.298Z,96880.02
2023-04-02T19:12:18.651Z,96883.00
2023-04-02T19:14:51.933Z,96884.18
2023-04-02T19:17:37.560Z,96887.89
2023-04-02T19:20:34.729Z,96890.78
2023-04-02T19:23:03.254Z,96894.19
2023-04-02T19:25:51.339Z,96896.91
2023-04-02T19:28:34.090Z,96898.61
2023-04-02T19:31:39.730Z,96900.14
2023-04-02T19:34:29.801Z,96899.38
2023-04-02T19:37:09.668Z,96901.86
2023-04-02T19:39:47.013Z,96904.71
2023-04-02T19:42:39.196Z,96908.23
2023-04-02T19:45:20.647Z,96916.91
2023-04-02T19:47:48.829Z,96926.61
2023-04-02T19:50:17.056Z,96931.55
2023-04-02T19:52:45.118Z,96933.47
2023-04-02T19:55:13.369Z,96937.11
2023-04-02T19:57:41.315Z,96938.08
2023-04-02T20:00:14.074Z,96937.96
2023-04-02T20:02:42.006Z,96938.92
2023-04-02T20:05:10.862Z,96944.02
2023-04-02T20:07:39.205Z,96942.13
2023-04-02T20:10:08.053Z,96945.70
2023-04-02T20:12:36.311Z,96946.02
2023-04-02T20:15:05.483Z,96952.40
2023-04-02T20:17:33.544Z,96957.89
2023-04-02T20:20:01.498Z,96953.30
2023-04-02T20:22:29.641Z,96946.91
2023-04-02T20:24:57.656Z,96947.15
2023-04-02T20:27:25.627Z,96951.21
2023-04-02T20:29:53.568Z,96952.33
2023-04-02T20:32:21.777Z,96954.64
2023-04-02T20:34:49.925Z,96957.18
2023-04-02T20:37:17.972Z,96953.40
2023-04-02T20:39:46.241Z,96956.60
2023-04-02T20:42:14.516Z,96957.14
2023-04-02T20:44:42.500Z,96957.48
2023-04-02T20:47:11.186Z,96958.16
2023-04-02T20:49:39.167Z,96961.27
2023-04-02T20:52:07.100Z,96962.13
2023-04-02T20:54:35.081Z,96959.76
2023-04-02T20:57:03.651Z,96958.46
2023-04-02T20:59:31.743Z,96959.09
2023-04-02T21:01:59.843Z,96960.94
2023-04-02T21:04:28.919Z,96966.75
2023-04-02T21:06:57.628Z,96965.95
2023-04-02T21:09:25.948Z,96966.31
2023-04-02T21:11:53.987Z,96964.01
2023-04-02T21:14:22.234Z,96966.05
2023-04-02T21:16:50.500Z,96968.30
2023-04-02T21:19:18.480Z,96975.58
2023-04-02T21:21:46.749Z,96973.95
2023-04-02T21:24:14.713Z,96969.91
2023-04-02T21:26:42.680Z,96965.42
2023-04-02T21:29:11.957Z,96961.98
2023-04-02T21:31:41.299Z,96964.85
2023-04-02T21:34:14.424Z,96967.29
2023-04-02T21:36:45.415Z,96963.08
2023-04-02T21:39:18.809Z,96963.69
2023-04-02T21:41:50.100Z,96961.14
2023-04-02T21:44:20.867Z,96965.05
2023-04-02T21:46:51.671Z,96963.77
2023-04-02T21:49:22.936Z,96965.23
2023-04-02T21:51:51.862Z,96965.14
2023-04-02T21:54:19.837Z,96963.09
2023-04-02T21:56:48.775Z,96967.47
2023-04-02T21:59:18.464Z,96963.88
2023-04-02T22:01:49.202Z,96963.55
2023-04-02T22:04:20.851Z,96972.43
2023-04-02T22:06:49.364Z,96970.66
2023-04-02T22:09:21.220Z,96970.11
2023-04-02T22:11:52.916Z,96972.32
2023-04-02T22:14:21.689Z,96975.84
2023-04-02T22:16:49.744Z,96975.66
2023-04-02T22:19:17.803Z,96972.80
2023-04-02T22:21:46.332Z,96973.80
2023-04-02T22:24:18.854Z,96974.20
2023-04-02T22:26:47.063Z,96974.40
2023-04-02T22:29:16.123Z,96975.46
2023-04-02T22:31:44.326Z,96973.80
2023-04-02T22:34:12.349Z,96976.39
2023-04-02T22:36:41.443Z,96977.61
2023-04-02T22:39:12.123Z,96979.19
2023-04-02T22:41:40.590Z,96984.42
2023-04-02T22:44:14.054Z,96984.29
2023-04-02T22:46:41.991Z,96983.55
2023-04-02T22:49:11.793Z,96984.87
2023-04-02T22:51:39.871Z,96985.34
2023-04-02T22:54:07.865Z,96986.14
2023-04-02T22:56:37.662Z,96986.55
2023-04-02T22:59:05.942Z,96989.06
2023-04-02T23:01:35.716Z,96992.92
2023-04-02T23:04:05.311Z,96996.48
2023-04-02T23:06:33.546Z,96997.41
2023-04-02T23:09:01.576Z,97002.48
2023-04-02T23:11:29.575Z,97005.67
2023-04-02T23:13:58.848Z,97006.25
2023-04-02T23:16:29.399Z,97009.11
2023-04-02T23:18:58.729Z,97011.29
2023-04-02T23:21:27.464Z,97011.20
2023-04-02T23:23:55.999Z,97013.02
2023-04-02T23:26:29.703Z,97011.35
2023-04-02T23:28:59.730Z,97011.79
2023-04-02T23:31:28.724Z,97009.95
2023-04-02T23:33:56.859Z,97008.98
2023-04-02T23:36:33.935Z,97007.66
2023-04-02T23:39:09.578Z,97008.06
2023-04-02T23:41:39.935Z,97013.52
2023-04-02T23:44:09.044Z,97017.19
2023-04-02T23:46:37.441Z,97016.11
2023-04-02T23:49:05.880Z,97018.17
2023-04-02T23:51:33.802Z,97019.52
2023-04-02T23:54:01.900Z,97019.47
2023-04-02T23:56:29.880Z,97018.19
2023-04-02T23:58:57.832Z,97016.03
